createdAt,value
2022-10-06T00:03:27.256Z,20.95
2022-10-06T00:08:39.069Z,34.35
2022-10-06T00:13:53.334Z,5.00
2022-10-06T00:19:03.926Z,11.10
2022-10-06T00:24:14.709Z,23.52
2022-10-06T00:29:27.862Z,2.58
2022-10-06T00:34:40.602Z,3.35
2022-10-06T00:39:51.301Z,10.73
2022-10-06T00:45:06.503Z,4.25
2022-10-06T00:50:18.995Z,15.05
2022-10-06T00:55:30.302Z,12.85
2022-10-06T01:00:45.657Z,20.50
2022-10-06T01:05:57.864Z,3.58
2022-10-06T01:16:26.048Z,60.30
2022-10-06T01:21:40.357Z,144.57
2022-10-06T01:26:55.801Z,70.72
2022-10-06T01:32:06.438Z,18.95
2022-10-06T01:37:17.779Z,34.25
2022-10-06T01:42:33.934Z,50.78
2022-10-06T01:47:43.725Z,48.00
2022-10-06T01:52:53.378Z,10.18
2022-10-06T01:58:05.922Z,5.78
2022-10-06T02:03:15.409Z,8.73
2022-10-06T02:08:27.356Z,45.92
2022-10-06T02:13:42.697Z,16.05
2022-10-06T02:18:53.336Z,70.53
2022-10-06T02:24:04.428Z,42.05
2022-10-06T02:29:19.246Z,8.57
2022-10-06T02:34:29.314Z,21.52
2022-10-06T02:39:39.789Z,34.00
2022-10-06T02:44:53.866Z,51.78
2022-10-06T02:50:03.163Z,28.33
2022-10-06T02:55:14.845Z,22.20
2022-10-06T03:00:26.957Z,8.55
2022-10-06T03:05:37.632Z,28.50
2022-10-06T03:10:46.252Z,14.73
2022-10-06T03:15:59.369Z,26.42
2022-10-06T03:21:08.473Z,18.58
2022-10-06T03:26:17.143Z,5.85
2022-10-06T03:31:28.752Z,4.03
2022-10-06T03:36:38.050Z,4.73
2022-10-06T03:41:46.579Z,9.32
2022-10-06T03:47:01.068Z,8.55
2022-10-06T03:52:10.960Z,4.65
2022-10-06T03:57:22.349Z,4.20
2022-10-06T04:02:35.560Z,5.20
2022-10-06T04:07:45.963Z,2.38
2022-10-06T04:12:55.647Z,14.45
2022-10-06T04:18:08.850Z,12.48
2022-10-06T04:23:19.115Z,3.85
2022-10-06T04:28:28.817Z,18.45
2022-10-06T04:33:42.096Z,8.50
2022-10-06T04:38:52.239Z,2.30
2022-10-06T04:44:02.202Z,1.73
2022-10-06T04:49:20.024Z,2.25
2022-10-06T04:54:33.706Z,1.23
2022-10-06T04:59:54.655Z,3.58
2022-10-06T05:05:07.250Z,2.30
2022-10-06T05:10:19.389Z,1.50
2022-10-06T05:15:29.695Z,1.25
2022-10-06T05:20:43.659Z,1.65
2022-10-06T05:25:58.371Z,0.88
2022-10-06T05:31:10.089Z,3.95
2022-10-06T05:36:24.855Z,1.25
2022-10-06T05:41:35.095Z,1.75
2022-10-06T05:46:43.862Z,2.15
2022-10-06T05:51:56.686Z,0.88
2022-10-06T05:57:05.488Z,8.80
2022-10-06T06:02:16.166Z,8.75
2022-10-06T06:07:29.300Z,7.05
2022-10-06T06:12:39.478Z,4.63
2022-10-06T06:17:48.762Z,9.60
2022-10-06T06:23:02.543Z,6.47
2022-10-06T06:28:12.873Z,9.80
2022-10-06T06:33:23.660Z,5.78
2022-10-06T06:38:36.624Z,8.95
2022-10-06T06:48:53.540Z,5.40
2022-10-06T06:54:05.222Z,4.47
2022-10-06T06:59:14.876Z,5.63
2022-10-06T07:04:23.797Z,3.92
2022-10-06T07:09:35.817Z,3.88
2022-10-06T07:15:04.440Z,3.80
2022-10-06T07:20:32.488Z,4.18
2022-10-06T07:25:45.439Z,3.40
2022-10-06T07:36:04.373Z,2.75
2022-10-06T07:41:19.340Z,3.60
2022-10-06T07:46:28.545Z,5.20
2022-10-06T07:51:36.811Z,4.75
2022-10-06T07:56:47.791Z,6.65
2022-10-06T08:01:58.348Z,8.68
2022-10-06T08:07:14.286Z,9.85
2022-10-06T08:12:38.720Z,4.47
2022-10-06T08:17:47.958Z,2.17
2022-10-06T08:22:58.109Z,3.55
2022-10-06T08:28:10.873Z,1.90
2022-10-06T08:33:21.406Z,5.07
2022-10-06T08:38:32.181Z,5.28
2022-10-06T08:43:44.939Z,4.75
2022-10-06T08:48:54.731Z,3.50
2022-10-06T08:54:10.218Z,3.30
2022-10-06T08:59:23.129Z,2.58
2022-10-06T09:04:35.971Z,3.15
2022-10-06T09:10:10.063Z,4.78
2022-10-06T09:15:34.808Z,2.10
2022-10-06T09:20:48.850Z,1.90
2022-10-06T09:25:59.863Z,3.40
2022-10-06T09:31:27.799Z,4.25
2022-10-06T09:36:39.090Z,3.95
2022-10-06T09:41:51.701Z,4.95
2022-10-06T09:47:06.129Z,3.50
2022-10-06T09:52:19.676Z,5.90
2022-10-06T09:57:32.697Z,2.55
2022-10-06T10:02:46.728Z,3.58
2022-10-06T10:08:10.202Z,1.52
2022-10-06T10:13:26.760Z,1.48
2022-10-06T10:18:39.902Z,1.50
2022-10-06T10:23:58.364Z,1.13
2022-10-06T10:29:23.336Z,1.10
2022-10-06T10:35:04.499Z,1.45
2022-10-06T10:40:30.858Z,2.58
2022-10-06T10:45:41.503Z,2.80
2022-10-06T10:50:59.049Z,2.67
2022-10-06T10:56:08.959Z,6.47
2022-10-06T11:01:31.218Z,4.30
2022-10-06T11:07:00.893Z,2.27
2022-10-06T11:12:20.734Z,3.58
2022-10-06T11:17:51.684Z,3.55
2022-10-06T11:23:19.116Z,8.55
2022-10-06T11:28:29.946Z,22.85
2022-10-06T11:33:41.757Z,41.15
2022-10-06T11:38:57.787Z,46.47
2022-10-06T11:44:09.832Z,32.90
2022-10-06T11:50:00.242Z,21.45
2022-10-06T11:55:26.009Z,90.45
2022-10-06T12:00:50.652Z,70.55
2022-10-06T12:06:00.860Z,7.68
2022-10-06T12:11:38.195Z,61.78
2022-10-06T12:17:14.020Z,19.33
2022-10-06T12:22:26.009Z,5.25
2022-10-06T12:27:45.737Z,12.93
2022-10-06T12:32:59.541Z,17.35
2022-10-06T12:38:09.617Z,9.40
2022-10-06T12:43:34.752Z,10.23
2022-10-06T12:54:14.732Z,6.22
2022-10-06T12:59:24.773Z,2.28
2022-10-06T13:04:44.259Z,2.30
2022-10-06T13:09:54.507Z,2.92
2022-10-06T13:15:24.299Z,4.13
2022-10-06T13:20:41.090Z,2.83
2022-10-06T13:25:52.532Z,5.03
2022-10-06T13:31:03.711Z,5.07
2022-10-06T13:36:16.779Z,6.13
2022-10-06T13:41:31.012Z,2.95
2022-10-06T13:46:45.036Z,2.03
2022-10-06T13:51:59.319Z,3.33
2022-10-06T13:57:08.063Z,2.25
2022-10-06T14:02:34.337Z,2.58
2022-10-06T14:07:49.375Z,2.58
2022-10-06T15:00:35.687Z,1.85
2022-10-06T15:06:04.777Z,2.22
2022-10-06T15:11:14.174Z,1.83
2022-10-06T15:16:26.901Z,1.85
2022-10-06T15:21:36.590Z,6.80
2022-10-06T15:26:57.674Z,2.47
2022-10-06T15:32:10.990Z,2.05
2022-10-06T15:37:21.344Z,1.40
2022-10-06T15:42:31.306Z,1.58
2022-10-06T15:47:45.330Z,1.92
2022-10-06T15:52:55.824Z,1.70
2022-10-06T15:58:06.345Z,1.83
2022-10-06T16:03:40.915Z,2.63
2022-10-06T16:08:54.582Z,4.30
2022-10-06T16:14:04.564Z,3.15
2022-10-06T16:19:17.643Z,1.95
2022-10-06T16:24:28.739Z,2.80
2022-10-06T16:29:38.654Z,2.83
2022-10-06T16:34:52.031Z,2.50
2022-10-06T16:40:01.857Z,5.65
2022-10-06T16:45:15.954Z,5.13
2022-10-06T16:55:35.476Z,3.50
2022-10-06T17:00:45.186Z,3.80
2022-10-06T17:05:59.083Z,3.05
2022-10-06T17:11:11.077Z,3.20
2022-10-06T17:16:23.837Z,2.33
2022-10-06T17:27:05.507Z,2.88
2022-10-06T17:32:14.157Z,2.65
2022-10-06T17:37:26.557Z,13.80
2022-10-06T17:42:38.472Z,3.30
2022-10-06T17:47:47.549Z,4.50
2022-10-06T17:53:00.456Z,3.72
2022-10-06T17:58:09.508Z,2.53
2022-10-06T18:03:19.107Z,2.70
2022-10-06T18:08:32.589Z,3.60
2022-10-06T18:13:42.105Z,2.80
2022-10-06T18:18:53.191Z,2.47
2022-10-06T18:24:05.871Z,4.35
2022-10-06T18:29:16.029Z,6.60
2022-10-06T18:39:58.027Z,3.67
2022-10-06T18:45:18.885Z,2.13
2022-10-06T18:50:29.200Z,2.63
2022-10-06T18:55:41.544Z,4.00
2022-10-06T19:00:50.131Z,2.97
2022-10-06T19:06:00.930Z,4.07
2022-10-06T19:11:25.001Z,2.97
2022-10-06T19:16:34.175Z,5.20
2022-10-06T19:21:45.587Z,2.97
2022-10-06T19:26:59.381Z,2.83
2022-10-06T19:32:09.497Z,4.65
2022-10-06T19:37:19.805Z,3.40
2022-10-06T19:42:43.259Z,2.72
2022-10-06T19:47:53.642Z,3.22
2022-10-06T19:53:02.572Z,3.50
2022-10-06T19:58:16.209Z,3.60
2022-10-06T20:03:25.204Z,2.45
2022-10-06T20:08:36.815Z,2.47
2022-10-06T20:13:50.997Z,3.08
2022-10-06T20:18:59.969Z,2.97
2022-10-06T20:24:10.218Z,3.35
2022-10-06T20:29:24.166Z,2.55
2022-10-06T20:34:34.452Z,3.50
2022-10-06T20:39:54.964Z,2.72
2022-10-06T20:45:06.123Z,2.88
2022-10-06T20:50:15.973Z,2.40
2022-10-06T20:55:25.610Z,2.17
2022-10-06T21:00:37.553Z,3.38
2022-10-06T21:05:54.645Z,2.92
2022-10-06T21:11:04.098Z,3.15
2022-10-06T21:16:15.862Z,2.90
2022-10-06T21:21:25.078Z,2.70
2022-10-06T21:26:34.830Z,3.35
2022-10-06T21:31:47.259Z,3.88
2022-10-06T21:36:56.315Z,2.65
2022-10-06T21:42:05.370Z,2.58
2022-10-06T21:47:16.294Z,3.05
2022-10-06T21:52:24.189Z,2.42
2022-10-06T21:57:32.634Z,4.90
2022-10-06T22:02:43.755Z,4.38
2022-10-06T22:07:51.631Z,2.42
2022-10-06T22:13:00.163Z,2.92
2022-10-06T22:18:11.744Z,2.58
2022-10-06T22:23:20.484Z,3.25
2022-10-06T22:28:30.063Z,2.63
2022-10-06T22:33:43.889Z,2.85
2022-10-06T22:38:53.576Z,4.20
2022-10-06T22:44:03.651Z,2.53
2022-10-06T22:49:15.723Z,3.53
2022-10-06T22:54:27.235Z,5.07
2022-10-06T22:59:37.200Z,2.80
2022-10-06T23:04:50.069Z,3.13
2022-10-06T23:09:58.587Z,3.13
2022-10-06T23:15:07.744Z,2.70
2022-10-06T23:20:19.443Z,2.40
2022-10-06T23:25:28.797Z,2.13
2022-10-06T23:30:41.087Z,1.92
2022-10-06T23:36:01.888Z,2.53
2022-10-06T23:41:11.062Z,2.35
2022-10-06T23:46:20.878Z,1.88
2022-10-06T23:51:34.033Z,1.85
2022-10-06T23:56:45.631Z,1.98
